sensor_id;sensor_type;location;lat;lon;timestamp;P1;durP1;ratioP1;P2;durP2;ratioP2
14373;SDS011;7270;49.004;12.066;2023-02-28T00:01:44;1.43;;;1.33;;
14373;SDS011;7270;49.004;12.066;2023-02-28T00:04:11;1.40;;;1.30;;
14373;SDS011;7270;49.004;12.066;2023-02-28T00:06:37;1.40;;;1.30;;
14373;SDS011;7270;49.004;12.066;2023-02-28T00:09:03;1.30;;;1.20;;
14373;SDS011;7270;49.004;12.066;2023-02-28T00:11:30;1.40;;;1.30;;
14373;SDS011;7270;49.004;12.066;2023-02-28T00:13:56;1.40;;;1.30;;
14373;SDS011;7270;49.004;12.066;2023-02-28T00:16:24;1.40;;;1.30;;
14373;SDS011;7270;49.004;12.066;2023-02-28T00:18:50;1.40;;;1.30;;
14373;SDS011;7270;49.004;12.066;2023-02-28T00:21:17;1.40;;;1.30;;
14373;SDS011;7270;49.004;12.066;2023-02-28T00:23:43;1.40;;;1.30;;
14373;SDS011;7270;49.004;12.066;2023-02-28T00:26:09;1.50;;;1.40;;
14373;SDS011;7270;49.004;12.066;2023-02-28T00:28:36;1.50;;;1.40;;
14373;SDS011;7270;49.004;12.066;2023-02-28T00:31:02;1.50;;;1.40;;
14373;SDS011;7270;49.004;12.066;2023-02-28T00:33:30;1.50;;;1.40;;
14373;SDS011;7270;49.004;12.066;2023-02-28T00:36:03;1.40;;;1.30;;
14373;SDS011;7270;49.004;12.066;2023-02-28T00:38:29;1.53;;;1.43;;
14373;SDS011;7270;49.004;12.066;2023-02-28T00:40:56;1.40;;;1.30;;
14373;SDS011;7270;49.004;12.066;2023-02-28T00:43:23;1.40;;;1.30;;
14373;SDS011;7270;49.004;12.066;2023-02-28T00:45:49;1.47;;;1.37;;
14373;SDS011;7270;49.004;12.066;2023-02-28T00:48:16;1.40;;;1.30;;
14373;SDS011;7270;49.004;12.066;2023-02-28T00:50:43;1.50;;;1.40;;
14373;SDS011;7270;49.004;12.066;2023-02-28T00:53:10;1.40;;;1.30;;
14373;SDS011;7270;49.004;12.066;2023-02-28T00:55:36;1.43;;;1.33;;
14373;SDS011;7270;49.004;12.066;2023-02-28T00:58:02;1.50;;;1.40;;
14373;SDS011;7270;49.004;12.066;2023-02-28T01:00:28;1.40;;;1.30;;
14373;SDS011;7270;49.004;12.066;2023-02-28T01:02:55;1.50;;;1.40;;
14373;SDS011;7270;49.004;12.066;2023-02-28T01:05:21;1.50;;;1.40;;
14373;SDS011;7270;49.004;12.066;2023-02-28T01:07:49;1.50;;;1.40;;
14373;SDS011;7270;49.004;12.066;2023-02-28T01:10:15;1.40;;;1.30;;
14373;SDS011;7270;49.004;12.066;2023-02-28T01:12:42;1.40;;;1.30;;
14373;SDS011;7270;49.004;12.066;2023-02-28T01:15:09;1.50;;;1.40;;
14373;SDS011;7270;49.004;12.066;2023-02-28T01:17:36;1.50;;;1.40;;
14373;SDS011;7270;49.004;12.066;2023-02-28T01:20:02;1.40;;;1.30;;
14373;SDS011;7270;49.004;12.066;2023-02-28T01:22:29;1.40;;;1.30;;
14373;SDS011;7270;49.004;12.066;2023-02-28T01:24:56;1.40;;;1.30;;
14373;SDS011;7270;49.004;12.066;2023-02-28T01:27:23;1.40;;;1.30;;
14373;SDS011;7270;49.004;12.066;2023-02-28T01:29:50;1.40;;;1.30;;
14373;SDS011;7270;49.004;12.066;2023-02-28T01:32:16;1.40;;;1.30;;
14373;SDS011;7270;49.004;12.066;2023-02-28T01:34:42;1.40;;;1.30;;
14373;SDS011;7270;49.004;12.066;2023-02-28T01:37:09;1.33;;;1.30;;
14373;SDS011;7270;49.004;12.066;2023-02-28T01:39:35;1.40;;;1.30;;
14373;SDS011;7270;49.004;12.066;2023-02-28T01:42:03;1.40;;;1.30;;
14373;SDS011;7270;49.004;12.066;2023-02-28T01:47:14;1.40;;;1.30;;
14373;SDS011;7270;49.004;12.066;2023-02-28T01:49:40;1.40;;;1.30;;
14373;SDS011;7270;49.004;12.066;2023-02-28T01:52:07;1.40;;;1.30;;
14373;SDS011;7270;49.004;12.066;2023-02-28T01:54:34;1.30;;;1.20;;
14373;SDS011;7270;49.004;12.066;2023-02-28T01:57:05;1.30;;;1.20;;
14373;SDS011;7270;49.004;12.066;2023-02-28T01:59:35;1.30;;;1.20;;
14373;SDS011;7270;49.004;12.066;2023-02-28T02:02:03;1.20;;;1.20;;
14373;SDS011;7270;49.004;12.066;2023-02-28T02:04:32;1.37;;;1.27;;
14373;SDS011;7270;49.004;12.066;2023-02-28T02:07:00;1.30;;;1.23;;
14373;SDS011;7270;49.004;12.066;2023-02-28T02:09:27;1.40;;;1.30;;
14373;SDS011;7270;49.004;12.066;2023-02-28T02:11:53;1.20;;;1.20;;
14373;SDS011;7270;49.004;12.066;2023-02-28T02:14:26;1.23;;;1.20;;
14373;SDS011;7270;49.004;12.066;2023-02-28T02:17:02;1.20;;;1.20;;
14373;SDS011;7270;49.004;12.066;2023-02-28T02:19:52;1.27;;;1.27;;
14373;SDS011;7270;49.004;12.066;2023-02-28T02:22:32;1.40;;;1.30;;
14373;SDS011;7270;49.004;12.066;2023-02-28T02:25:11;1.20;;;1.20;;
14373;SDS011;7270;49.004;12.066;2023-02-28T02:27:48;1.30;;;1.20;;
14373;SDS011;7270;49.004;12.066;2023-02-28T02:30:36;1.40;;;1.30;;
14373;SDS011;7270;49.004;12.066;2023-02-28T02:33:10;1.30;;;1.20;;
14373;SDS011;7270;49.004;12.066;2023-02-28T02:35:45;1.30;;;1.20;;
14373;SDS011;7270;49.004;12.066;2023-02-28T02:38:14;1.30;;;1.20;;
14373;SDS011;7270;49.004;12.066;2023-02-28T02:40:46;1.37;;;1.30;;
14373;SDS011;7270;49.004;12.066;2023-02-28T02:43:16;1.30;;;1.20;;
14373;SDS011;7270;49.004;12.066;2023-02-28T02:45:45;1.40;;;1.30;;
14373;SDS011;7270;49.004;12.066;2023-02-28T02:48:12;1.40;;;1.30;;
14373;SDS011;7270;49.004;12.066;2023-02-28T02:50:41;1.47;;;1.37;;
14373;SDS011;7270;49.004;12.066;2023-02-28T02:53:10;1.37;;;1.27;;
14373;SDS011;7270;49.004;12.066;2023-02-28T02:55:38;1.23;;;1.20;;
14373;SDS011;7270;49.004;12.066;2023-02-28T02:58:07;1.47;;;1.37;;
14373;SDS011;7270;49.004;12.066;2023-02-28T03:00:35;1.20;;;1.20;;
14373;SDS011;7270;49.004;12.066;2023-02-28T03:03:03;1.10;;;1.10;;
14373;SDS011;7270;49.004;12.066;2023-02-28T03:05:32;1.13;;;1.13;;
14373;SDS011;7270;49.004;12.066;2023-02-28T03:08:01;1.27;;;1.20;;
14373;SDS011;7270;49.004;12.066;2023-02-28T03:10:36;1.20;;;1.20;;
14373;SDS011;7270;49.004;12.066;2023-02-28T03:13:07;1.10;;;1.10;;
14373;SDS011;7270;49.004;12.066;2023-02-28T03:15:38;1.30;;;1.20;;
14373;SDS011;7270;49.004;12.066;2023-02-28T03:18:08;1.10;;;1.10;;
14373;SDS011;7270;49.004;12.066;2023-02-28T03:20:35;1.20;;;1.20;;
14373;SDS011;7270;49.004;12.066;2023-02-28T03:23:08;1.30;;;1.20;;
14373;SDS011;7270;49.004;12.066;2023-02-28T03:25:41;1.40;;;1.30;;
14373;SDS011;7270;49.004;12.066;2023-02-28T03:28:11;1.30;;;1.20;;
14373;SDS011;7270;49.004;12.066;2023-02-28T03:30:42;1.10;;;1.10;;
14373;SDS011;7270;49.004;12.066;2023-02-28T03:33:09;1.40;;;1.30;;
14373;SDS011;7270;49.004;12.066;2023-02-28T03:35:39;1.30;;;1.20;;
14373;SDS011;7270;49.004;12.066;2023-02-28T03:38:08;1.30;;;1.20;;
14373;SDS011;7270;49.004;12.066;2023-02-28T03:40:40;1.20;;;1.20;;
14373;SDS011;7270;49.004;12.066;2023-02-28T03:43:09;1.10;;;1.10;;
14373;SDS011;7270;49.004;12.066;2023-02-28T03:45:37;1.40;;;1.30;;
14373;SDS011;7270;49.004;12.066;2023-02-28T03:48:06;1.10;;;1.10;;
14373;SDS011;7270;49.004;12.066;2023-02-28T03:50:34;1.40;;;1.30;;
14373;SDS011;7270;49.004;12.066;2023-02-28T03:53:02;1.20;;;1.20;;
14373;SDS011;7270;49.004;12.066;2023-02-28T03:55:32;1.20;;;1.20;;
14373;SDS011;7270;49.004;12.066;2023-02-28T03:58:01;1.20;;;1.20;;
14373;SDS011;7270;49.004;12.066;2023-02-28T04:00:31;1.17;;;1.17;;
14373;SDS011;7270;49.004;12.066;2023-02-28T04:02:59;1.20;;;1.20;;
14373;SDS011;7270;49.004;12.066;2023-02-28T04:05:25;1.10;;;1.10;;
14373;SDS011;7270;49.004;12.066;2023-02-28T04:07:52;1.27;;;1.20;;
14373;SDS011;7270;49.004;12.066;2023-02-28T04:10:19;1.20;;;1.20;;
14373;SDS011;7270;49.004;12.066;2023-02-28T04:12:45;1.30;;;1.20;;
14373;SDS011;7270;49.004;12.066;2023-02-28T04:15:13;1.20;;;1.20;;
14373;SDS011;7270;49.004;12.066;2023-02-28T04:17:40;1.20;;;1.20;;
14373;SDS011;7270;49.004;12.066;2023-02-28T04:20:06;1.20;;;1.20;;
14373;SDS011;7270;49.004;12.066;2023-02-28T04:22:35;1.10;;;1.10;;
14373;SDS011;7270;49.004;12.066;2023-02-28T04:25:02;1.10;;;1.10;;
14373;SDS011;7270;49.004;12.066;2023-02-28T04:27:28;1.30;;;1.20;;
14373;SDS011;7270;49.004;12.066;2023-02-28T04:29:55;1.20;;;1.20;;
14373;SDS011;7270;49.004;12.066;2023-02-28T04:32:22;1.20;;;1.20;;
14373;SDS011;7270;49.004;12.066;2023-02-28T04:34:49;1.20;;;1.20;;
14373;SDS011;7270;49.004;12.066;2023-02-28T04:37:15;1.30;;;1.20;;
14373;SDS011;7270;49.004;12.066;2023-02-28T04:39:42;1.20;;;1.20;;
14373;SDS011;7270;49.004;12.066;2023-02-28T04:42:08;1.20;;;1.20;;
14373;SDS011;7270;49.004;12.066;2023-02-28T04:44:34;1.30;;;1.20;;
14373;SDS011;7270;49.004;12.066;2023-02-28T04:47:01;1.20;;;1.20;;
14373;SDS011;7270;49.004;12.066;2023-02-28T04:49:28;1.17;;;1.17;;
14373;SDS011;7270;49.004;12.066;2023-02-28T04:51:55;1.20;;;1.20;;
14373;SDS011;7270;49.004;12.066;2023-02-28T04:54:21;1.10;;;1.10;;
14373;SDS011;7270;49.004;12.066;2023-02-28T04:56:48;1.20;;;1.20;;
14373;SDS011;7270;49.004;12.066;2023-02-28T04:59:14;1.27;;;1.20;;
14373;SDS011;7270;49.004;12.066;2023-02-28T05:01:47;1.37;;;1.27;;
14373;SDS011;7270;49.004;12.066;2023-02-28T05:04:14;1.20;;;1.20;;
14373;SDS011;7270;49.004;12.066;2023-02-28T05:06:42;1.30;;;1.20;;
14373;SDS011;7270;49.004;12.066;2023-02-28T05:09:08;1.30;;;1.20;;
14373;SDS011;7270;49.004;12.066;2023-02-28T05:11:36;1.23;;;1.20;;
14373;SDS011;7270;49.004;12.066;2023-02-28T05:14:04;1.10;;;1.10;;
14373;SDS011;7270;49.004;12.066;2023-02-28T05:16:31;1.10;;;1.10;;
14373;SDS011;7270;49.004;12.066;2023-02-28T05:18:58;1.10;;;1.10;;
14373;SDS011;7270;49.004;12.066;2023-02-28T05:21:25;1.30;;;1.20;;
14373;SDS011;7270;49.004;12.066;2023-02-28T05:24:01;1.20;;;1.20;;
14373;SDS011;7270;49.004;12.066;2023-02-28T05:26:28;1.20;;;1.20;;
14373;SDS011;7270;49.004;12.066;2023-02-28T05:28:54;1.10;;;1.10;;
14373;SDS011;7270;49.004;12.066;2023-02-28T05:31:21;1.10;;;1.10;;
14373;SDS011;7270;49.004;12.066;2023-02-28T05:33:47;1.20;;;1.20;;
14373;SDS011;7270;49.004;12.066;2023-02-28T05:36:13;1.20;;;1.20;;
14373;SDS011;7270;49.004;12.066;2023-02-28T05:38:40;1.40;;;1.30;;
14373;SDS011;7270;49.004;12.066;2023-02-28T05:41:08;1.30;;;1.20;;
14373;SDS011;7270;49.004;12.066;2023-02-28T05:43:34;1.20;;;1.20;;
14373;SDS011;7270;49.004;12.066;2023-02-28T05:46:02;1.10;;;1.10;;
14373;SDS011;7270;49.004;12.066;2023-02-28T05:48:28;1.10;;;1.10;;
14373;SDS011;7270;49.004;12.066;2023-02-28T05:50:56;1.50;;;1.40;;
14373;SDS011;7270;49.004;12.066;2023-02-28T05:53:23;1.30;;;1.20;;
14373;SDS011;7270;49.004;12.066;2023-02-28T05:55:49;1.27;;;1.20;;
14373;SDS011;7270;49.004;12.066;2023-02-28T05:58:17;1.40;;;1.30;;
14373;SDS011;7270;49.004;12.066;2023-02-28T06:00:45;1.40;;;1.30;;
14373;SDS011;7270;49.004;12.066;2023-02-28T06:03:11;1.20;;;1.20;;
14373;SDS011;7270;49.004;12.066;2023-02-28T06:05:39;1.17;;;1.17;;
14373;SDS011;7270;49.004;12.066;2023-02-28T06:08:05;1.30;;;1.20;;
14373;SDS011;7270;49.004;12.066;2023-02-28T06:10:32;1.10;;;1.10;;
14373;SDS011;7270;49.004;12.066;2023-02-28T06:12:59;1.10;;;1.10;;
14373;SDS011;7270;49.004;12.066;2023-02-28T06:15:28;1.20;;;1.20;;
14373;SDS011;7270;49.004;12.066;2023-02-28T06:17:55;1.30;;;1.20;;
14373;SDS011;7270;49.004;12.066;2023-02-28T06:20:22;1.20;;;1.20;;
14373;SDS011;7270;49.004;12.066;2023-02-28T06:22:48;1.07;;;1.07;;
14373;SDS011;7270;49.004;12.066;2023-02-28T06:25:20;1.30;;;1.20;;
14373;SDS011;7270;49.004;12.066;2023-02-28T06:27:46;1.20;;;1.20;;
14373;SDS011;7270;49.004;12.066;2023-02-28T06:30:13;1.20;;;1.20;;
14373;SDS011;7270;49.004;12.066;2023-02-28T06:32:41;1.27;;;1.23;;
14373;SDS011;7270;49.004;12.066;2023-02-28T06:35:08;1.10;;;1.10;;
14373;SDS011;7270;49.004;12.066;2023-02-28T06:37:34;1.30;;;1.20;;
14373;SDS011;7270;49.004;12.066;2023-02-28T06:40:01;1.20;;;1.20;;
14373;SDS011;7270;49.004;12.066;2023-02-28T06:42:28;1.30;;;1.20;;
14373;SDS011;7270;49.004;12.066;2023-02-28T06:44:55;1.27;;;1.20;;
14373;SDS011;7270;49.004;12.066;2023-02-28T06:47:22;1.23;;;1.20;;
14373;SDS011;7270;49.004;12.066;2023-02-28T06:49:50;1.20;;;1.20;;
14373;SDS011;7270;49.004;12.066;2023-02-28T06:52:16;1.30;;;1.20;;
14373;SDS011;7270;49.004;12.066;2023-02-28T06:54:42;1.30;;;1.20;;
14373;SDS011;7270;49.004;12.066;2023-02-28T06:57:08;1.40;;;1.30;;
14373;SDS011;7270;49.004;12.066;2023-02-28T06:59:35;1.30;;;1.20;;
14373;SDS011;7270;49.004;12.066;2023-02-28T07:02:01;1.20;;;1.20;;
14373;SDS011;7270;49.004;12.066;2023-02-28T07:04:28;1.20;;;1.20;;
14373;SDS011;7270;49.004;12.066;2023-02-28T07:06:55;1.20;;;1.20;;
14373;SDS011;7270;49.004;12.066;2023-02-28T07:09:22;1.10;;;1.10;;
14373;SDS011;7270;49.004;12.066;2023-02-28T07:11:48;1.20;;;1.20;;
14373;SDS011;7270;49.004;12.066;2023-02-28T07:14:15;1.43;;;1.33;;
14373;SDS011;7270;49.004;12.066;2023-02-28T07:16:41;1.27;;;1.20;;
14373;SDS011;7270;49.004;12.066;2023-02-28T07:19:09;1.40;;;1.30;;
14373;SDS011;7270;49.004;12.066;2023-02-28T07:21:35;1.30;;;1.20;;
14373;SDS011;7270;49.004;12.066;2023-02-28T07:24:03;1.40;;;1.30;;
14373;SDS011;7270;49.004;12.066;2023-02-28T07:26:30;1.30;;;1.20;;
14373;SDS011;7270;49.004;12.066;2023-02-28T07:28:59;1.10;;;1.10;;
14373;SDS011;7270;49.004;12.066;2023-02-28T07:31:25;1.13;;;1.13;;
14373;SDS011;7270;49.004;12.066;2023-02-28T07:33:51;1.30;;;1.20;;
14373;SDS011;7270;49.004;12.066;2023-02-28T07:36:19;1.30;;;1.20;;
14373;SDS011;7270;49.004;12.066;2023-02-28T07:38:46;1.30;;;1.20;;
14373;SDS011;7270;49.004;12.066;2023-02-28T07:41:14;1.20;;;1.20;;
14373;SDS011;7270;49.004;12.066;2023-02-28T07:43:43;1.20;;;1.20;;
14373;SDS011;7270;49.004;12.066;2023-02-28T07:46:11;1.40;;;1.30;;
14373;SDS011;7270;49.004;12.066;2023-02-28T07:48:37;1.30;;;1.20;;
14373;SDS011;7270;49.004;12.066;2023-02-28T07:51:04;1.30;;;1.20;;
14373;SDS011;7270;49.004;12.066;2023-02-28T07:53:30;1.40;;;1.30;;
14373;SDS011;7270;49.004;12.066;2023-02-28T07:55:57;1.30;;;1.20;;
14373;SDS011;7270;49.004;12.066;2023-02-28T07:58:25;1.20;;;1.20;;
14373;SDS011;7270;49.004;12.066;2023-02-28T08:00:52;1.10;;;1.10;;
14373;SDS011;7270;49.004;12.066;2023-02-28T08:03:18;1.20;;;1.20;;
14373;SDS011;7270;49.004;12.066;2023-02-28T08:05:45;1.17;;;1.17;;
14373;SDS011;7270;49.004;12.066;2023-02-28T08:08:12;1.20;;;1.20;;
14373;SDS011;7270;49.004;12.066;2023-02-28T08:10:39;1.20;;;1.20;;
14373;SDS011;7270;49.004;12.066;2023-02-28T08:13:05;1.20;;;1.20;;
14373;SDS011;7270;49.004;12.066;2023-02-28T08:15:33;1.20;;;1.20;;
14373;SDS011;7270;49.004;12.066;2023-02-28T08:17:59;1.10;;;1.10;;
14373;SDS011;7270;49.004;12.066;2023-02-28T08:20:26;1.10;;;1.10;;
14373;SDS011;7270;49.004;12.066;2023-02-28T08:22:52;1.30;;;1.20;;
14373;SDS011;7270;49.004;12.066;2023-02-28T08:25:18;1.10;;;1.10;;
14373;SDS011;7270;49.004;12.066;2023-02-28T08:27:45;1.10;;;1.10;;
14373;SDS011;7270;49.004;12.066;2023-02-28T08:30:12;1.23;;;1.20;;
14373;SDS011;7270;49.004;12.066;2023-02-28T08:32:40;1.20;;;1.20;;
14373;SDS011;7270;49.004;12.066;2023-02-28T08:35:07;1.20;;;1.20;;
14373;SDS011;7270;49.004;12.066;2023-02-28T08:37:34;1.20;;;1.20;;
14373;SDS011;7270;49.004;12.066;2023-02-28T08:40:00;1.20;;;1.20;;
14373;SDS011;7270;49.004;12.066;2023-02-28T08:42:27;1.10;;;1.10;;
14373;SDS011;7270;49.004;12.066;2023-02-28T08:44:53;1.10;;;1.10;;
14373;SDS011;7270;49.004;12.066;2023-02-28T08:47:20;1.10;;;1.10;;
14373;SDS011;7270;49.004;12.066;2023-02-28T08:49:47;1.10;;;1.10;;
14373;SDS011;7270;49.004;12.066;2023-02-28T08:52:14;1.10;;;1.10;;
14373;SDS011;7270;49.004;12.066;2023-02-28T08:54:40;1.10;;;1.10;;
14373;SDS011;7270;49.004;12.066;2023-02-28T08:57:06;1.00;;;1.00;;
14373;SDS011;7270;49.004;12.066;2023-02-28T08:59:33;1.10;;;1.10;;
14373;SDS011;7270;49.004;12.066;2023-02-28T09:01:59;1.40;;;1.30;;
14373;SDS011;7270;49.004;12.066;2023-02-28T09:04:25;1.50;;;1.40;;
14373;SDS011;7270;49.004;12.066;2023-02-28T09:06:53;1.50;;;1.40;;
14373;SDS011;7270;49.004;12.066;2023-02-28T09:09:19;2.37;;;2.27;;
14373;SDS011;7270;49.004;12.066;2023-02-28T09:11:45;2.20;;;2.10;;
14373;SDS011;7270;49.004;12.066;2023-02-28T09:14:12;1.93;;;1.83;;
14373;SDS011;7270;49.004;12.066;2023-02-28T09:16:38;1.90;;;1.80;;
14373;SDS011;7270;49.004;12.066;2023-02-28T09:19:04;1.57;;;1.47;;
14373;SDS011;7270;49.004;12.066;2023-02-28T09:21:31;2.20;;;2.10;;
14373;SDS011;7270;49.004;12.066;2023-02-28T09:23:58;1.50;;;1.40;;
14373;SDS011;7270;49.004;12.066;2023-02-28T09:26:25;1.30;;;1.20;;
14373;SDS011;7270;49.004;12.066;2023-02-28T09:28:52;1.40;;;1.30;;
14373;SDS011;7270;49.004;12.066;2023-02-28T09:31:19;1.40;;;1.30;;
14373;SDS011;7270;49.004;12.066;2023-02-28T09:33:46;1.40;;;1.30;;
14373;SDS011;7270;49.004;12.066;2023-02-28T09:36:13;1.40;;;1.30;;
14373;SDS011;7270;49.004;12.066;2023-02-28T09:38:39;1.10;;;1.10;;
14373;SDS011;7270;49.004;12.066;2023-02-28T09:41:11;1.03;;;1.03;;
14373;SDS011;7270;49.004;12.066;2023-02-28T09:43:38;1.00;;;1.00;;
14373;SDS011;7270;49.004;12.066;2023-02-28T09:46:08;1.00;;;1.00;;
14373;SDS011;7270;49.004;12.066;2023-02-28T09:48:39;1.00;;;1.00;;
14373;SDS011;7270;49.004;12.066;2023-02-28T09:51:09;1.00;;;1.00;;
14373;SDS011;7270;49.004;12.066;2023-02-28T09:53:38;1.10;;;1.10;;
14373;SDS011;7270;49.004;12.066;2023-02-28T09:56:05;1.00;;;1.00;;
14373;SDS011;7270;49.004;12.066;2023-02-28T09:58:36;1.00;;;1.00;;
14373;SDS011;7270;49.004;12.066;2023-02-28T10:01:05;1.00;;;1.00;;
14373;SDS011;7270;49.004;12.066;2023-02-28T10:03:32;1.00;;;1.00;;
14373;SDS011;7270;49.004;12.066;2023-02-28T10:06:04;1.10;;;1.10;;
14373;SDS011;7270;49.004;12.066;2023-02-28T10:08:33;1.10;;;1.10;;
14373;SDS011;7270;49.004;12.066;2023-02-28T10:11:06;1.00;;;1.00;;
14373;SDS011;7270;49.004;12.066;2023-02-28T10:13:35;1.00;;;1.00;;
14373;SDS011;7270;49.004;12.066;2023-02-28T10:16:03;1.20;;;1.20;;
14373;SDS011;7270;49.004;12.066;2023-02-28T10:18:35;1.10;;;1.10;;
14373;SDS011;7270;49.004;12.066;2023-02-28T10:21:04;1.00;;;1.00;;
14373;SDS011;7270;49.004;12.066;2023-02-28T10:23:32;1.00;;;1.00;;
14373;SDS011;7270;49.004;12.066;2023-02-28T10:26:00;1.00;;;1.00;;
14373;SDS011;7270;49.004;12.066;2023-02-28T10:28:28;1.00;;;1.00;;
14373;SDS011;7270;49.004;12.066;2023-02-28T10:30:58;1.00;;;1.00;;
14373;SDS011;7270;49.004;12.066;2023-02-28T10:33:25;1.10;;;1.10;;
14373;SDS011;7270;49.004;12.066;2023-02-28T10:35:54;1.10;;;1.10;;
14373;SDS011;7270;49.004;12.066;2023-02-28T10:38:21;1.07;;;1.07;;
14373;SDS011;7270;49.004;12.066;2023-02-28T10:40:47;1.00;;;1.00;;
14373;SDS011;7270;49.004;12.066;2023-02-28T10:43:21;1.00;;;1.00;;
14373;SDS011;7270;49.004;12.066;2023-02-28T10:45:58;1.30;;;1.20;;
14373;SDS011;7270;49.004;12.066;2023-02-28T10:48:36;1.10;;;1.10;;
14373;SDS011;7270;49.004;12.066;2023-02-28T10:51:02;1.10;;;1.10;;
14373;SDS011;7270;49.004;12.066;2023-02-28T10:53:34;1.00;;;1.00;;
14373;SDS011;7270;49.004;12.066;2023-02-28T10:56:02;1.10;;;1.10;;
14373;SDS011;7270;49.004;12.066;2023-02-28T10:58:29;1.00;;;1.00;;
14373;SDS011;7270;49.004;12.066;2023-02-28T11:00:57;1.10;;;1.10;;
14373;SDS011;7270;49.004;12.066;2023-02-28T11:03:28;1.10;;;1.10;;
14373;SDS011;7270;49.004;12.066;2023-02-28T11:05:55;1.20;;;1.20;;
14373;SDS011;7270;49.004;12.066;2023-02-28T11:08:21;1.30;;;1.20;;
14373;SDS011;7270;49.004;12.066;2023-02-28T11:10:48;1.20;;;1.20;;
14373;SDS011;7270;49.004;12.066;2023-02-28T11:13:20;1.03;;;1.03;;
14373;SDS011;7270;49.004;12.066;2023-02-28T11:15:50;1.10;;;1.10;;
14373;SDS011;7270;49.004;12.066;2023-02-28T11:18:28;1.10;;;1.10;;
14373;SDS011;7270;49.004;12.066;2023-02-28T11:20:56;1.13;;;1.13;;
14373;SDS011;7270;49.004;12.066;2023-02-28T11:23:24;1.20;;;1.20;;
14373;SDS011;7270;49.004;12.066;2023-02-28T11:25:52;1.30;;;1.20;;
14373;SDS011;7270;49.004;12.066;2023-02-28T11:28:24;1.20;;;1.20;;
14373;SDS011;7270;49.004;12.066;2023-02-28T11:30:59;1.20;;;1.20;;
14373;SDS011;7270;49.004;12.066;2023-02-28T11:33:27;1.30;;;1.20;;
14373;SDS011;7270;49.004;12.066;2023-02-28T11:35:55;1.10;;;1.10;;
14373;SDS011;7270;49.004;12.066;2023-02-28T11:38:23;1.10;;;1.10;;
14373;SDS011;7270;49.004;12.066;2023-02-28T11:40:52;1.00;;;1.00;;
14373;SDS011;7270;49.004;12.066;2023-02-28T11:43:26;1.10;;;1.10;;
14373;SDS011;7270;49.004;12.066;2023-02-28T11:46:02;1.10;;;1.10;;
14373;SDS011;7270;49.004;12.066;2023-02-28T11:48:33;1.07;;;1.07;;
14373;SDS011;7270;49.004;12.066;2023-02-28T11:51:08;1.00;;;1.00;;
14373;SDS011;7270;49.004;12.066;2023-02-28T11:53:46;1.10;;;1.10;;
14373;SDS011;7270;49.004;12.066;2023-02-28T11:56:15;1.10;;;1.10;;
14373;SDS011;7270;49.004;12.066;2023-02-28T11:58:47;1.10;;;1.10;;
14373;SDS011;7270;49.004;12.066;2023-02-28T12:01:18;1.10;;;1.10;;
14373;SDS011;7270;49.004;12.066;2023-02-28T12:03:50;1.20;;;1.20;;
14373;SDS011;7270;49.004;12.066;2023-02-28T12:06:23;1.10;;;1.10;;
14373;SDS011;7270;49.004;12.066;2023-02-28T12:08:53;1.23;;;1.20;;
14373;SDS011;7270;49.004;12.066;2023-02-28T12:11:27;1.10;;;1.10;;
14373;SDS011;7270;49.004;12.066;2023-02-28T12:13:59;1.20;;;1.20;;
14373;SDS011;7270;49.004;12.066;2023-02-28T12:16:37;1.20;;;1.20;;
14373;SDS011;7270;49.004;12.066;2023-02-28T12:19:17;1.00;;;1.00;;
14373;SDS011;7270;49.004;12.066;2023-02-28T12:21:50;1.30;;;1.20;;
14373;SDS011;7270;49.004;12.066;2023-02-28T12:24:25;1.10;;;1.10;;
14373;SDS011;7270;49.004;12.066;2023-02-28T12:26:56;1.10;;;1.10;;
14373;SDS011;7270;49.004;12.066;2023-02-28T12:29:24;1.20;;;1.20;;
14373;SDS011;7270;49.004;12.066;2023-02-28T12:31:54;1.10;;;1.10;;
14373;SDS011;7270;49.004;12.066;2023-02-28T12:34:22;1.00;;;1.00;;
14373;SDS011;7270;49.004;12.066;2023-02-28T12:36:52;1.10;;;1.10;;
14373;SDS011;7270;49.004;12.066;2023-02-28T12:39:20;1.10;;;1.10;;
14373;SDS011;7270;49.004;12.066;2023-02-28T12:41:51;1.20;;;1.20;;
14373;SDS011;7270;49.004;12.066;2023-02-28T12:44:19;1.00;;;1.00;;
14373;SDS011;7270;49.004;12.066;2023-02-28T12:46:47;1.10;;;1.10;;
14373;SDS011;7270;49.004;12.066;2023-02-28T12:49:15;1.20;;;1.20;;
14373;SDS011;7270;49.004;12.066;2023-02-28T12:51:44;1.20;;;1.20;;
14373;SDS011;7270;49.004;12.066;2023-02-28T12:54:14;1.23;;;1.20;;
14373;SDS011;7270;49.004;12.066;2023-02-28T12:56:44;1.10;;;1.10;;
14373;SDS011;7270;49.004;12.066;2023-02-28T12:59:13;1.30;;;1.20;;
14373;SDS011;7270;49.004;12.066;2023-02-28T13:01:43;1.07;;;1.07;;
14373;SDS011;7270;49.004;12.066;2023-02-28T13:07:05;1.37;;;1.27;;
14373;SDS011;7270;49.004;12.066;2023-02-28T13:09:37;1.10;;;1.10;;
14373;SDS011;7270;49.004;12.066;2023-02-28T13:12:11;1.37;;;1.27;;
14373;SDS011;7270;49.004;12.066;2023-02-28T13:14:38;1.17;;;1.17;;
14373;SDS011;7270;49.004;12.066;2023-02-28T13:17:09;1.30;;;1.20;;
14373;SDS011;7270;49.004;12.066;2023-02-28T13:19:36;1.10;;;1.10;;
14373;SDS011;7270;49.004;12.066;2023-02-28T13:22:03;1.00;;;1.00;;
14373;SDS011;7270;49.004;12.066;2023-02-28T13:24:39;1.20;;;1.20;;
14373;SDS011;7270;49.004;12.066;2023-02-28T13:27:20;1.10;;;1.10;;
14373;SDS011;7270;49.004;12.066;2023-02-28T13:29:49;1.10;;;1.10;;
14373;SDS011;7270;49.004;12.066;2023-02-28T13:40:47;1.13;;;1.13;;
14373;SDS011;7270;49.004;12.066;2023-02-28T13:43:15;1.10;;;1.10;;
14373;SDS011;7270;49.004;12.066;2023-02-28T13:45:54;1.40;;;1.30;;
14373;SDS011;7270;49.004;12.066;2023-02-28T13:48:29;1.17;;;1.17;;
14373;SDS011;7270;49.004;12.066;2023-02-28T13:50:55;1.20;;;1.20;;
14373;SDS011;7270;49.004;12.066;2023-02-28T13:56:17;1.10;;;1.10;;
14373;SDS011;7270;49.004;12.066;2023-02-28T13:58:48;1.00;;;1.00;;
14373;SDS011;7270;49.004;12.066;2023-02-28T14:01:28;1.10;;;1.10;;
14373;SDS011;7270;49.004;12.066;2023-02-28T14:04:00;1.10;;;1.10;;
14373;SDS011;7270;49.004;12.066;2023-02-28T14:06:29;1.40;;;1.30;;
14373;SDS011;7270;49.004;12.066;2023-02-28T14:08:58;1.10;;;1.10;;
14373;SDS011;7270;49.004;12.066;2023-02-28T14:11:31;1.10;;;1.10;;
14373;SDS011;7270;49.004;12.066;2023-02-28T14:13:58;1.00;;;1.00;;
14373;SDS011;7270;49.004;12.066;2023-02-28T14:16:25;1.10;;;1.10;;
14373;SDS011;7270;49.004;12.066;2023-02-28T14:18:55;1.10;;;1.10;;
14373;SDS011;7270;49.004;12.066;2023-02-28T14:21:22;1.20;;;1.20;;
14373;SDS011;7270;49.004;12.066;2023-02-28T14:26:51;1.20;;;1.20;;
14373;SDS011;7270;49.004;12.066;2023-02-28T14:29:27;1.17;;;1.17;;
14373;SDS011;7270;49.004;12.066;2023-02-28T14:31:58;1.20;;;1.20;;
14373;SDS011;7270;49.004;12.066;2023-02-28T14:34:28;1.20;;;1.20;;
14373;SDS011;7270;49.004;12.066;2023-02-28T14:36:58;1.10;;;1.10;;
14373;SDS011;7270;49.004;12.066;2023-02-28T14:39:26;1.40;;;1.30;;
14373;SDS011;7270;49.004;12.066;2023-02-28T14:41:57;1.10;;;1.10;;
14373;SDS011;7270;49.004;12.066;2023-02-28T14:44:28;1.10;;;1.10;;
14373;SDS011;7270;49.004;12.066;2023-02-28T14:46:55;1.20;;;1.20;;
14373;SDS011;7270;49.004;12.066;2023-02-28T14:49:23;1.20;;;1.20;;
14373;SDS011;7270;49.004;12.066;2023-02-28T14:51:50;1.50;;;1.40;;
14373;SDS011;7270;49.004;12.066;2023-02-28T14:54:26;1.70;;;1.60;;
14373;SDS011;7270;49.004;12.066;2023-02-28T14:56:53;1.70;;;1.60;;
14373;SDS011;7270;49.004;12.066;2023-02-28T14:59:25;1.50;;;1.40;;
14373;SDS011;7270;49.004;12.066;2023-02-28T15:01:51;1.50;;;1.40;;
14373;SDS011;7270;49.004;12.066;2023-02-28T15:04:20;1.30;;;1.30;;
14373;SDS011;7270;49.004;12.066;2023-02-28T15:09:29;1.50;;;1.40;;
14373;SDS011;7270;49.004;12.066;2023-02-28T15:11:55;1.60;;;1.50;;
14373;SDS011;7270;49.004;12.066;2023-02-28T15:14:22;1.60;;;1.50;;
14373;SDS011;7270;49.004;12.066;2023-02-28T15:16:51;1.60;;;1.50;;
14373;SDS011;7270;49.004;12.066;2023-02-28T15:19:19;1.70;;;1.60;;